Fairchance, PA (15436)

11:47 PM EST on January 27, 2015 (GMT -0500)
APRSWXNET Uniontown PA US | Change Station
CLOSE
Current Station
Personal Weather Station
Location: Uledi, PA
Elevation: 1220 ft
Nearby Weather Stations

Elev 1220 ft 39.89 °N, 79.76 °W | Updated 29 minutes ago

Snow
Snow
19 °F
Feels Like 19 °F
N
0
Wind Variable Wind from NW
Gusts 0.0 mph

Today
High -- | Low -- °F
--% Chance of Precip.
Yesterday
High -- | Low -- °F
Precip. -- in
7:31 AM 5:32 PM
First Quarter, 61% visible
Pressure 30.17 in
Visibility 9.0 miles
Clouds Mostly Cloudy 2000 ft
Overcast 2600 ft
Windchill 19 °F
Dew Point 17 °F
Humidity 90%
Rainfall 0.30 in
Snow Depth Not available.
UV 0 out of 12
Pollen .10 out of 12
Air Quality Not available.
Flu Activity Not available.
METAR KMGW 280353Z 29004KT 9SM -SN BKN020 OVC026 M07/M11 A3011 RMK AO2 SLP215 P0000 T10671111

More Conditions Fewer Conditions

Pressure 30.17 in
Visibility 9.0 miles
Clouds Mostly Cloudy 2000 ft
Overcast 2600 ft
Windchill 19 °F
Dew Point 17 °F
Humidity 90%
Rainfall 0.30 in
Snow Depth Not available.
UV 0 out of 12
Pollen .10 out of 12
Air Quality Not available.
Flu Activity Not available.
METAR KMGW 280353Z 29004KT 9SM -SN BKN020 OVC026 M07/M11 A3011 RMK AO2 SLP215 P0000 T10671111

More Conditions Fewer Conditions

10-Day Weather Forecast

Almanac

Astronomy

Jan. 27, 2015 Rise Set
Actual Time
Civil Twilight
Nautical Twilight
Astronomical Twilight
Moon
Length of Visible Light
Length of Day
Tomorrow will be .
, % of the Moon is Illuminated

Today's Extremes

State Highs State Lows

Community

WunderPhotos

Upload Photos

1,791,102 photos uploaded!

WunderBlogs® & News

Nearby

Air Quality

  Air Quality AQ Index Pollutant
Not available.

Snow Depth

Station Depth Elevation

Earthquake Activity

City Distance Mag. Time & Date
Minimum magnitude displayed is 2.5.

Coastal Water Temperatures

Place Temperature

Nearby Weather Stations